createdAt,value
2022-11-16T00:00:13.389Z,941.72
2022-11-16T00:01:13.384Z,941.73
2022-11-16T00:02:13.526Z,941.69
2022-11-16T00:03:13.356Z,941.71
2022-11-16T00:04:13.346Z,941.69
2022-11-16T00:05:13.363Z,941.63
2022-11-16T00:06:13.322Z,941.66
2022-11-16T00:07:13.359Z,941.61
2022-11-16T00:08:13.290Z,941.57
2022-11-16T00:09:13.279Z,941.61
2022-11-16T00:10:13.277Z,941.53
2022-11-16T00:11:13.246Z,941.59
2022-11-16T00:12:13.268Z,941.60
2022-11-16T00:13:13.247Z,941.60
2022-11-16T00:14:13.206Z,941.61
2022-11-16T00:15:13.184Z,941.58
2022-11-16T00:16:13.200Z,941.53
2022-11-16T00:17:13.205Z,941.58
2022-11-16T00:18:13.295Z,941.53
2022-11-16T00:19:13.162Z,941.49
2022-11-16T00:20:13.157Z,941.49
2022-11-16T00:21:13.147Z,941.47
2022-11-16T00:22:13.119Z,941.42
2022-11-16T00:23:13.084Z,941.36
2022-11-16T00:24:13.088Z,941.40
2022-11-16T00:25:13.084Z,941.35
2022-11-16T00:26:13.059Z,941.32
2022-11-16T00:27:13.067Z,941.25
2022-11-16T00:28:13.035Z,941.30
2022-11-16T00:29:13.026Z,941.20
2022-11-16T00:30:12.980Z,941.20
2022-11-16T00:31:12.989Z,941.16
2022-11-16T00:32:12.997Z,941.14
2022-11-16T00:33:12.952Z,941.14
2022-11-16T00:34:12.939Z,941.09
2022-11-16T00:35:12.922Z,941.03
2022-11-16T00:36:12.913Z,941.06
2022-11-16T00:37:12.923Z,941.04
2022-11-16T00:38:12.894Z,941.07
2022-11-16T00:39:12.885Z,940.99
2022-11-16T00:40:12.877Z,940.98
2022-11-16T00:41:12.886Z,941.03
2022-11-16T00:42:12.862Z,940.93
2022-11-16T00:43:12.862Z,940.94
2022-11-16T00:44:12.805Z,940.95
2022-11-16T00:45:12.816Z,940.84
2022-11-16T00:46:12.804Z,940.90
2022-11-16T00:47:12.801Z,940.86
2022-11-16T00:48:12.753Z,940.87
2022-11-16T00:49:12.773Z,940.84
2022-11-16T00:50:12.731Z,940.78
2022-11-16T00:51:12.716Z,940.76
2022-11-16T00:52:12.697Z,940.77
2022-11-16T00:53:12.689Z,940.74
2022-11-16T00:54:12.725Z,940.68
2022-11-16T00:55:12.675Z,940.68
2022-11-16T00:56:12.646Z,940.70
2022-11-16T00:57:12.693Z,940.64
2022-11-16T00:58:12.628Z,940.60
2022-11-16T00:59:12.636Z,940.63
2022-11-16T01:00:12.597Z,940.55
2022-11-16T01:01:12.729Z,940.53
2022-11-16T01:02:12.557Z,940.54
2022-11-16T01:03:12.556Z,940.50
2022-11-16T01:04:12.563Z,940.52
2022-11-16T01:05:12.534Z,940.52
2022-11-16T01:06:12.505Z,940.53
2022-11-16T01:07:12.556Z,940.52
2022-11-16T01:08:12.478Z,940.50
2022-11-16T01:09:12.504Z,940.54
2022-11-16T01:10:12.459Z,940.54
2022-11-16T01:11:12.469Z,940.51
2022-11-16T01:12:12.431Z,940.57
2022-11-16T01:13:12.421Z,940.51
2022-11-16T01:14:12.430Z,940.51
2022-11-16T01:15:12.391Z,940.49
2022-11-16T01:16:12.376Z,940.50
2022-11-16T01:17:12.364Z,940.47
2022-11-16T01:18:12.357Z,940.45
2022-11-16T01:19:12.380Z,940.51
2022-11-16T01:20:12.319Z,940.50
2022-11-16T01:21:12.320Z,940.48
2022-11-16T01:22:12.292Z,940.49
2022-11-16T01:23:12.287Z,940.44
2022-11-16T01:24:12.306Z,940.43
2022-11-16T01:25:12.258Z,940.46
2022-11-16T01:26:12.245Z,940.43
2022-11-16T01:27:12.231Z,940.42
2022-11-16T01:28:12.215Z,940.44
2022-11-16T01:29:12.240Z,940.46
2022-11-16T01:30:12.201Z,940.49
2022-11-16T01:31:12.214Z,940.51
2022-11-16T01:32:12.168Z,940.53
2022-11-16T01:33:12.159Z,940.60
2022-11-16T01:34:12.147Z,940.59
2022-11-16T01:35:12.155Z,940.58
2022-11-16T01:36:12.125Z,940.57
2022-11-16T01:37:12.154Z,940.62
2022-11-16T01:38:12.088Z,940.61
2022-11-16T01:39:12.104Z,940.65
2022-11-16T01:40:12.055Z,940.58
2022-11-16T01:41:12.051Z,940.59
2022-11-16T01:42:12.165Z,940.59
2022-11-16T01:43:12.035Z,940.62
2022-11-16T01:44:12.009Z,940.59
2022-11-16T01:45:12.027Z,940.61
2022-11-16T01:46:11.990Z,940.55
2022-11-16T01:47:12.004Z,940.52
2022-11-16T01:48:11.997Z,940.55
2022-11-16T01:49:11.948Z,940.50
2022-11-16T01:50:11.939Z,940.48
2022-11-16T01:51:11.927Z,940.48
2022-11-16T01:52:11.901Z,940.47
2022-11-16T01:53:11.892Z,940.42
2022-11-16T01:54:11.870Z,940.45
2022-11-16T01:55:11.887Z,940.43
2022-11-16T01:56:11.847Z,940.46
2022-11-16T01:57:11.838Z,940.44
2022-11-16T01:58:11.813Z,940.46
2022-11-16T01:59:11.843Z,940.44
2022-11-16T02:00:11.808Z,940.41
2022-11-16T02:01:11.871Z,940.45
2022-11-16T02:02:11.765Z,940.42
2022-11-16T02:03:11.779Z,940.43
2022-11-16T02:04:11.743Z,940.42
2022-11-16T02:05:11.726Z,940.42
2022-11-16T02:06:11.742Z,940.40
2022-11-16T02:07:11.776Z,940.42
2022-11-16T02:08:11.688Z,940.40
2022-11-16T02:09:11.673Z,940.34
2022-11-16T02:10:11.677Z,940.24
2022-11-16T02:11:11.670Z,940.17
2022-11-16T02:12:11.661Z,940.17
2022-11-16T02:13:11.634Z,940.17
2022-11-16T02:14:11.630Z,940.12
2022-11-16T02:15:11.605Z,940.08
2022-11-16T02:16:11.612Z,940.06
2022-11-16T02:17:11.575Z,940.09
2022-11-16T02:18:11.582Z,940.02
2022-11-16T02:19:11.543Z,939.96
2022-11-16T02:20:11.526Z,939.99
2022-11-16T02:21:11.513Z,940.00
2022-11-16T02:22:11.534Z,939.94
2022-11-16T02:23:11.489Z,939.95
2022-11-16T02:24:11.500Z,939.94
2022-11-16T02:25:11.464Z,939.94
2022-11-16T02:26:11.435Z,939.89
2022-11-16T02:27:11.434Z,939.90
2022-11-16T02:28:11.418Z,939.84
2022-11-16T02:29:11.426Z,939.82
2022-11-16T02:30:11.394Z,939.86
2022-11-16T02:31:11.382Z,939.82
2022-11-16T02:32:11.351Z,939.80
2022-11-16T02:33:11.368Z,939.79
2022-11-16T02:34:11.339Z,939.79
2022-11-16T02:35:11.365Z,939.81
2022-11-16T02:36:11.310Z,939.76
2022-11-16T02:37:11.296Z,939.76
2022-11-16T02:38:11.277Z,939.77
2022-11-16T02:39:11.297Z,939.73
2022-11-16T02:40:11.252Z,939.73
2022-11-16T02:41:11.257Z,939.70
2022-11-16T02:42:11.226Z,939.70
2022-11-16T02:43:11.213Z,939.75
2022-11-16T02:44:11.191Z,939.70
2022-11-16T02:45:11.218Z,939.70
2022-11-16T02:46:11.186Z,939.62
2022-11-16T02:47:11.172Z,939.70
2022-11-16T02:48:11.137Z,939.68
2022-11-16T02:49:11.146Z,939.66
2022-11-16T02:50:11.111Z,939.68
2022-11-16T02:51:11.126Z,939.64
2022-11-16T02:52:11.093Z,939.63
2022-11-16T02:53:11.072Z,939.60
2022-11-16T02:54:11.063Z,939.58
2022-11-16T02:55:11.089Z,939.54
2022-11-16T02:56:11.080Z,939.58
2022-11-16T02:57:11.023Z,939.56
2022-11-16T02:58:11.006Z,939.55
2022-11-16T02:59:15.242Z,939.52
2022-11-16T03:00:10.977Z,939.52
2022-11-16T03:01:11.005Z,939.57
2022-11-16T03:02:10.980Z,939.55
2022-11-16T03:03:10.956Z,939.50
2022-11-16T03:04:10.939Z,939.54
2022-11-16T03:05:10.912Z,939.52
2022-11-16T03:06:10.904Z,939.51
2022-11-16T03:07:10.943Z,939.48
2022-11-16T03:08:10.906Z,939.50
2022-11-16T03:09:10.866Z,939.48
2022-11-16T03:10:10.842Z,939.49
2022-11-16T03:11:10.833Z,939.46
2022-11-16T03:12:10.831Z,939.47
2022-11-16T03:13:10.846Z,939.48
2022-11-16T03:14:10.816Z,939.51
2022-11-16T03:15:10.793Z,939.50
2022-11-16T03:16:10.776Z,939.48
2022-11-16T03:17:10.769Z,939.44
2022-11-16T03:18:10.778Z,939.42
2022-11-16T03:19:10.745Z,939.41
2022-11-16T03:20:10.712Z,939.33
2022-11-16T03:21:10.706Z,939.35
2022-11-16T03:22:10.705Z,939.38
2022-11-16T03:23:10.703Z,939.36
2022-11-16T03:24:10.687Z,939.33
2022-11-16T03:25:10.647Z,939.33
2022-11-16T03:26:10.641Z,939.26
2022-11-16T03:27:10.628Z,939.30
2022-11-16T03:28:10.602Z,939.27
2022-11-16T03:29:10.628Z,939.26
2022-11-16T03:30:10.584Z,939.26
2022-11-16T03:31:10.562Z,939.29
2022-11-16T03:32:10.562Z,939.23
2022-11-16T03:33:10.554Z,939.31
2022-11-16T03:34:10.546Z,939.27
2022-11-16T03:35:10.516Z,939.24
2022-11-16T03:36:10.494Z,939.22
2022-11-16T03:37:10.487Z,939.25
2022-11-16T03:38:10.479Z,939.24
2022-11-16T03:39:10.511Z,939.22
2022-11-16T03:40:10.479Z,939.25
2022-11-16T03:41:10.444Z,939.25
2022-11-16T03:42:10.429Z,939.20
2022-11-16T03:43:10.477Z,939.20
2022-11-16T03:44:10.420Z,939.21
2022-11-16T03:45:10.376Z,939.22
2022-11-16T03:46:10.384Z,939.19
2022-11-16T03:47:10.356Z,939.20
2022-11-16T03:48:10.331Z,939.24
2022-11-16T03:49:10.369Z,939.22
2022-11-16T03:50:10.305Z,939.22
2022-11-16T03:51:10.316Z,939.18
2022-11-16T03:52:10.276Z,939.23
2022-11-16T03:53:10.265Z,939.26
2022-11-16T03:54:10.275Z,939.27
2022-11-16T03:55:10.239Z,939.26
2022-11-16T03:56:10.254Z,939.29
2022-11-16T03:57:10.212Z,939.24
2022-11-16T03:58:10.199Z,939.26
2022-11-16T03:59:10.182Z,939.27
2022-11-16T04:00:10.219Z,939.32
2022-11-16T04:01:10.282Z,939.28
2022-11-16T04:02:10.142Z,939.32
2022-11-16T04:03:10.131Z,939.34
2022-11-16T04:04:10.112Z,939.33
2022-11-16T04:05:10.129Z,939.32
2022-11-16T04:06:10.101Z,939.32
2022-11-16T04:07:10.137Z,939.37
2022-11-16T04:08:10.062Z,939.36
2022-11-16T04:09:10.059Z,939.33
2022-11-16T04:10:10.053Z,939.34
2022-11-16T04:11:10.024Z,939.33
2022-11-16T04:12:10.011Z,939.34
2022-11-16T04:13:10.011Z,939.40
2022-11-16T04:14:09.986Z,939.38
2022-11-16T04:15:09.994Z,939.42
2022-11-16T04:16:09.976Z,939.44
2022-11-16T04:17:09.940Z,939.47
2022-11-16T04:18:09.952Z,939.49
2022-11-16T04:19:09.908Z,939.50
2022-11-16T04:20:09.901Z,939.60
2022-11-16T04:21:09.909Z,939.58
2022-11-16T04:22:09.884Z,939.61
2022-11-16T04:23:09.907Z,939.66
2022-11-16T04:24:09.844Z,939.67
2022-11-16T04:25:09.832Z,939.65
2022-11-16T04:26:09.822Z,939.62
2022-11-16T04:27:09.818Z,939.63
2022-11-16T04:28:09.835Z,939.64
2022-11-16T04:29:09.785Z,939.66
2022-11-16T04:30:09.795Z,939.69
2022-11-16T04:31:09.748Z,939.73
2022-11-16T04:32:09.755Z,939.76
2022-11-16T04:33:09.767Z,939.74
2022-11-16T04:34:09.712Z,939.70
2022-11-16T04:35:09.718Z,939.73
2022-11-16T04:36:09.702Z,939.74
2022-11-16T04:37:09.669Z,939.71
2022-11-16T04:38:09.696Z,939.75
2022-11-16T04:39:09.677Z,939.71
2022-11-16T04:40:09.642Z,939.76
2022-11-16T04:41:09.656Z,939.72
2022-11-16T04:42:09.662Z,939.77
2022-11-16T04:43:09.620Z,939.78
2022-11-16T04:44:09.615Z,939.72
2022-11-16T04:45:09.562Z,939.74
2022-11-16T04:46:09.561Z,939.79
2022-11-16T04:47:09.570Z,939.84
2022-11-16T04:48:09.646Z,939.85
2022-11-16T04:49:09.543Z,939.86
2022-11-16T04:50:09.505Z,939.90
2022-11-16T04:51:09.483Z,939.92
2022-11-16T04:52:09.491Z,939.95
2022-11-16T04:53:09.473Z,939.98
2022-11-16T04:54:09.472Z,939.97
2022-11-16T04:55:09.428Z,940.01
2022-11-16T04:56:09.420Z,940.07
2022-11-16T04:57:09.436Z,940.12
2022-11-16T04:58:09.397Z,940.14
2022-11-16T04:59:09.460Z,940.13
2022-11-16T05:00:09.410Z,940.14
2022-11-16T05:01:09.388Z,940.15
2022-11-16T05:02:09.344Z,940.17
2022-11-16T05:03:09.327Z,940.20
2022-11-16T05:04:09.320Z,940.24
2022-11-16T05:05:09.349Z,940.24
2022-11-16T05:06:09.277Z,940.24
2022-11-16T05:07:09.307Z,940.27
2022-11-16T05:08:09.442Z,940.35
2022-11-16T05:09:09.253Z,940.38
2022-11-16T05:10:09.273Z,940.42
2022-11-16T05:11:09.244Z,940.46
2022-11-16T05:12:09.253Z,940.50
2022-11-16T05:13:09.209Z,940.51
2022-11-16T05:14:09.227Z,940.56
2022-11-16T05:15:09.157Z,940.60
2022-11-16T05:16:09.177Z,940.61
2022-11-16T05:17:09.150Z,940.63
2022-11-16T05:18:09.154Z,940.65
2022-11-16T05:19:09.112Z,940.65
2022-11-16T05:20:09.095Z,940.67
2022-11-16T05:21:09.081Z,940.69
2022-11-16T05:22:09.102Z,940.70
2022-11-16T05:23:09.062Z,940.69
2022-11-16T05:24:09.077Z,940.71
2022-11-16T05:25:09.049Z,940.73
2022-11-16T05:26:09.054Z,940.70
2022-11-16T05:27:09.040Z,940.69
2022-11-16T05:28:09.019Z,940.71
2022-11-16T05:29:08.972Z,940.74
2022-11-16T05:30:08.966Z,940.75
2022-11-16T05:31:08.979Z,940.79
2022-11-16T05:32:08.945Z,940.76
2022-11-16T05:33:08.949Z,940.81
2022-11-16T05:34:08.909Z,940.86
2022-11-16T05:35:08.892Z,940.82
2022-11-16T05:36:08.898Z,940.83
2022-11-16T05:37:08.870Z,940.84
2022-11-16T05:38:08.879Z,940.85
2022-11-16T05:39:08.881Z,940.89
2022-11-16T05:40:08.831Z,940.91
2022-11-16T05:41:08.837Z,940.94
2022-11-16T05:42:08.818Z,940.98
2022-11-16T05:43:08.844Z,941.03
2022-11-16T05:44:08.786Z,941.07
2022-11-16T05:45:08.756Z,941.07
2022-11-16T05:46:08.796Z,941.08
2022-11-16T05:47:08.738Z,941.09
2022-11-16T05:48:08.759Z,941.11
2022-11-16T05:49:08.709Z,941.13
2022-11-16T05:50:08.695Z,941.11
2022-11-16T05:51:08.693Z,941.12
2022-11-16T05:52:08.673Z,941.12
2022-11-16T05:53:08.683Z,941.16
2022-11-16T05:54:08.651Z,941.26
2022-11-16T05:55:08.632Z,941.26
2022-11-16T05:56:08.781Z,941.23
2022-11-16T05:57:08.625Z,941.24
2022-11-16T05:58:08.625Z,941.27
2022-11-16T05:59:13.715Z,941.25
2022-11-16T06:00:08.568Z,941.29
2022-11-16T06:01:08.542Z,941.27
2022-11-16T06:02:08.550Z,941.27
2022-11-16T06:03:08.558Z,941.30
2022-11-16T06:04:08.535Z,941.27
2022-11-16T06:05:08.506Z,941.31
2022-11-16T06:06:08.489Z,941.31
2022-11-16T06:07:08.611Z,941.28
2022-11-16T06:08:08.469Z,941.26
2022-11-16T06:09:08.464Z,941.30
2022-11-16T06:10:08.442Z,941.29
2022-11-16T06:11:08.419Z,941.26
2022-11-16T06:12:08.410Z,941.24
2022-11-16T06:13:08.381Z,941.28
2022-11-16T06:14:08.434Z,941.34
2022-11-16T06:15:08.392Z,941.34
2022-11-16T06:16:08.350Z,941.39
2022-11-16T06:17:08.347Z,941.41
2022-11-16T06:18:08.323Z,941.43
2022-11-16T06:19:08.317Z,941.47
2022-11-16T06:20:08.336Z,941.44
2022-11-16T06:21:08.293Z,941.46
2022-11-16T06:22:08.272Z,941.47
2022-11-16T06:23:08.313Z,941.45
2022-11-16T06:24:08.247Z,941.46
2022-11-16T06:25:08.235Z,941.54
2022-11-16T06:26:08.224Z,941.56
2022-11-16T06:27:08.238Z,941.57
2022-11-16T06:28:08.488Z,941.62
2022-11-16T06:29:08.179Z,941.65
2022-11-16T06:30:08.188Z,941.67
2022-11-16T06:31:08.148Z,941.62
2022-11-16T06:32:08.136Z,941.67
2022-11-16T06:33:08.143Z,941.71
2022-11-16T06:34:08.116Z,941.70
2022-11-16T06:35:08.114Z,941.76
2022-11-16T06:36:08.090Z,941.74
2022-11-16T06:37:08.078Z,941.72
2022-11-16T06:38:08.086Z,941.70
2022-11-16T06:39:08.040Z,941.69
2022-11-16T06:40:08.032Z,941.71
2022-11-16T06:41:08.056Z,941.72
2022-11-16T06:42:08.039Z,941.68
2022-11-16T06:43:07.988Z,941.66
2022-11-16T06:44:08.027Z,941.67
2022-11-16T06:45:07.980Z,941.65
2022-11-16T06:46:07.982Z,941.75
2022-11-16T06:47:07.932Z,941.73
2022-11-16T06:48:07.924Z,941.72
2022-11-16T06:49:07.902Z,941.71
2022-11-16T06:50:07.913Z,941.69
2022-11-16T06:51:07.914Z,941.72
2022-11-16T06:52:07.867Z,941.74
2022-11-16T06:53:07.852Z,941.75
2022-11-16T06:54:07.864Z,941.74
2022-11-16T06:55:07.845Z,941.75
2022-11-16T06:56:07.835Z,941.76
2022-11-16T06:57:07.800Z,941.73
2022-11-16T06:58:07.799Z,941.74
2022-11-16T06:59:07.800Z,941.73
2022-11-16T07:00:07.793Z,941.75
2022-11-16T07:01:07.749Z,941.80
2022-11-16T07:02:07.784Z,941.82
2022-11-16T07:03:07.720Z,941.85
2022-11-16T07:04:07.734Z,941.81
2022-11-16T07:05:07.697Z,941.79
2022-11-16T07:06:07.699Z,941.75
2022-11-16T07:07:07.702Z,941.77
2022-11-16T07:08:07.653Z,941.80
2022-11-16T07:09:07.670Z,941.80
2022-11-16T07:10:07.630Z,941.82
2022-11-16T07:11:07.620Z,941.80
2022-11-16T07:12:07.607Z,941.81
2022-11-16T07:13:07.607Z,941.85
2022-11-16T07:14:07.588Z,941.79
2022-11-16T07:15:07.593Z,941.81
2022-11-16T07:16:07.554Z,941.77
2022-11-16T07:17:09.717Z,941.80
2022-11-16T07:18:07.552Z,941.81
2022-11-16T07:19:07.507Z,941.82
2022-11-16T07:20:07.561Z,941.82
2022-11-16T07:21:07.474Z,941.84
2022-11-16T07:22:07.464Z,941.85
2022-11-16T07:23:11.440Z,941.87
2022-11-16T07:24:07.459Z,941.81
2022-11-16T07:25:07.456Z,941.84
2022-11-16T07:26:07.447Z,941.86
2022-11-16T07:27:07.393Z,941.81
2022-11-16T07:28:07.388Z,941.81
2022-11-16T07:29:07.389Z,941.79
2022-11-16T07:30:07.371Z,941.83
2022-11-16T07:31:07.365Z,941.85
2022-11-16T07:32:07.366Z,941.85
2022-11-16T07:33:07.366Z,941.87
2022-11-16T07:34:07.310Z,941.86
2022-11-16T07:35:07.411Z,941.90
2022-11-16T07:36:07.296Z,941.90
2022-11-16T07:37:07.311Z,941.88
2022-11-16T07:38:07.263Z,941.93
2022-11-16T07:39:07.257Z,941.94
2022-11-16T07:40:07.294Z,941.90
2022-11-16T07:41:07.206Z,941.91
2022-11-16T07:42:07.248Z,941.93
2022-11-16T07:43:07.185Z,941.97
2022-11-16T07:44:10.947Z,941.91
2022-11-16T07:45:07.156Z,941.90
2022-11-16T07:46:41.274Z,941.90
2022-11-16T07:47:07.161Z,941.93
2022-11-16T07:48:07.210Z,941.92
2022-11-16T07:49:11.320Z,941.95
2022-11-16T07:50:07.087Z,941.91
2022-11-16T07:51:07.145Z,941.91
2022-11-16T07:52:07.141Z,941.89
2022-11-16T07:53:07.054Z,941.93
2022-11-16T07:54:07.079Z,941.97
2022-11-16T07:55:07.031Z,941.86
2022-11-16T07:56:07.057Z,941.95
2022-11-16T07:57:07.003Z,941.93
2022-11-16T07:58:07.019Z,941.93
2022-11-16T07:59:06.979Z,941.95
2022-11-16T08:00:06.959Z,941.95
2022-11-16T08:01:06.939Z,941.97
2022-11-16T08:02:06.957Z,941.93
2022-11-16T08:03:06.947Z,941.94
2022-11-16T08:04:06.910Z,941.90
2022-11-16T08:05:06.934Z,941.90
2022-11-16T08:06:06.871Z,941.94
2022-11-16T08:07:06.924Z,941.94
2022-11-16T08:08:06.941Z,941.94
2022-11-16T08:09:06.870Z,941.93
2022-11-16T08:10:06.890Z,941.89
2022-11-16T08:11:06.820Z,941.93
2022-11-16T08:12:06.818Z,941.95
2022-11-16T08:13:06.787Z,941.94
2022-11-16T08:14:06.803Z,941.94
2022-11-16T08:15:06.758Z,941.92
2022-11-16T08:16:06.855Z,941.91
2022-11-16T08:17:06.740Z,941.95
2022-11-16T08:18:06.719Z,941.93
2022-11-16T08:19:06.778Z,941.96
2022-11-16T08:20:06.682Z,941.98
2022-11-16T08:21:06.748Z,941.98
2022-11-16T08:22:06.658Z,941.97
2022-11-16T08:23:06.652Z,941.98
2022-11-16T08:24:06.674Z,942.01
2022-11-16T08:25:06.623Z,942.01
2022-11-16T08:26:06.612Z,942.03
2022-11-16T08:27:06.616Z,942.01
2022-11-16T08:28:06.586Z,942.07
2022-11-16T08:29:06.597Z,942.02
2022-11-16T08:30:06.607Z,942.02
2022-11-16T08:31:06.567Z,942.07
2022-11-16T08:32:06.557Z,942.03
2022-11-16T08:33:06.568Z,942.01
2022-11-16T08:34:06.534Z,942.04
2022-11-16T08:35:06.490Z,942.03
2022-11-16T08:36:12.533Z,942.07
2022-11-16T08:37:06.499Z,942.09
2022-11-16T08:38:06.443Z,942.06
2022-11-16T08:39:06.515Z,942.05
2022-11-16T08:40:06.425Z,942.07
2022-11-16T08:41:06.419Z,942.07
2022-11-16T08:42:06.401Z,942.07
2022-11-16T08:43:06.380Z,942.07
2022-11-16T08:44:06.396Z,942.07
2022-11-16T08:45:06.394Z,942.06
2022-11-16T08:46:06.369Z,942.03
2022-11-16T08:47:06.371Z,942.06
2022-11-16T08:48:06.333Z,942.05
2022-11-16T08:49:06.303Z,942.05
2022-11-16T08:50:06.305Z,942.06
2022-11-16T08:51:21.755Z,942.08
2022-11-16T08:52:06.304Z,942.06
2022-11-16T08:53:06.262Z,942.07
2022-11-16T08:54:06.234Z,942.09
2022-11-16T08:55:06.217Z,942.09
2022-11-16T08:56:06.198Z,942.10
2022-11-16T08:57:06.248Z,942.14
2022-11-16T08:58:06.174Z,942.14
2022-11-16T08:59:06.179Z,942.14
2022-11-16T09:00:06.161Z,942.20
2022-11-16T09:01:06.158Z,942.20
2022-11-16T09:02:06.227Z,942.19
2022-11-16T09:03:06.131Z,942.13
2022-11-16T09:04:06.100Z,942.14
2022-11-16T09:05:06.116Z,942.15
2022-11-16T09:06:06.072Z,942.15
2022-11-16T09:07:06.197Z,942.16
2022-11-16T09:08:06.037Z,942.17
2022-11-16T09:09:06.090Z,942.14
2022-11-16T09:10:06.039Z,942.14
2022-11-16T09:11:06.019Z,942.15
2022-11-16T09:12:06.008Z,942.11
2022-11-16T09:13:06.005Z,942.11
2022-11-16T09:14:05.968Z,942.07
2022-11-16T09:15:05.943Z,942.09
2022-11-16T09:16:05.935Z,942.13
2022-11-16T09:17:05.917Z,942.14
2022-11-16T09:18:05.954Z,942.18
2022-11-16T09:19:05.907Z,942.23
2022-11-16T09:20:05.880Z,942.19
2022-11-16T09:21:05.869Z,942.18
2022-11-16T09:22:05.863Z,942.19
2022-11-16T09:23:05.877Z,942.14
2022-11-16T09:24:06.027Z,942.16
2022-11-16T09:25:05.860Z,942.14
2022-11-16T09:26:05.801Z,942.12
2022-11-16T09:27:05.799Z,942.17
2022-11-16T09:28:05.770Z,942.19
2022-11-16T09:29:05.788Z,942.18
2022-11-16T09:30:05.751Z,942.17
2022-11-16T09:31:05.737Z,942.15
2022-11-16T09:32:05.718Z,942.12
2022-11-16T09:33:05.742Z,942.11
2022-11-16T09:34:05.692Z,942.17
2022-11-16T09:35:05.678Z,942.11
2022-11-16T09:36:05.664Z,942.13
2022-11-16T09:37:05.673Z,942.13
2022-11-16T09:38:05.638Z,942.13
2022-11-16T09:40:05.618Z,942.13
2022-11-16T09:41:05.640Z,942.16
2022-11-16T09:42:05.575Z,942.13
2022-11-16T09:43:05.603Z,942.10
2022-11-16T09:44:05.549Z,942.10
2022-11-16T09:45:05.580Z,942.08
2022-11-16T09:46:05.560Z,942.09
2022-11-16T09:47:05.515Z,942.12
2022-11-16T09:48:05.503Z,942.12
2022-11-16T09:49:13.976Z,942.13
2022-11-16T09:50:05.478Z,942.16
2022-11-16T09:51:05.471Z,942.13
2022-11-16T09:52:05.471Z,942.15
2022-11-16T09:53:05.460Z,942.17
2022-11-16T09:54:05.447Z,942.12
2022-11-16T09:55:05.412Z,942.12
2022-11-16T09:56:05.403Z,942.13
2022-11-16T09:57:10.981Z,942.14
2022-11-16T09:58:05.393Z,942.14
2022-11-16T09:59:05.522Z,942.12
2022-11-16T10:00:05.338Z,942.09
2022-11-16T10:01:05.432Z,942.05
2022-11-16T10:02:05.309Z,942.04
2022-11-16T10:03:05.462Z,942.02
2022-11-16T10:04:05.312Z,942.08
2022-11-16T10:05:05.275Z,942.07
2022-11-16T10:06:05.277Z,942.11
2022-11-16T10:07:05.276Z,942.13
2022-11-16T10:08:05.252Z,942.10
2022-11-16T10:09:05.212Z,942.08
2022-11-16T10:10:05.220Z,942.05
2022-11-16T10:11:05.182Z,942.04
2022-11-16T10:12:05.165Z,942.04
2022-11-16T10:13:05.171Z,942.01
2022-11-16T10:14:05.168Z,942.03
2022-11-16T10:15:05.152Z,942.02
2022-11-16T10:16:05.119Z,942.02
2022-11-16T10:17:05.105Z,941.99
2022-11-16T10:18:05.098Z,942.02
2022-11-16T10:19:05.106Z,941.95
2022-11-16T10:20:05.068Z,941.97
2022-11-16T10:21:05.091Z,941.90
2022-11-16T10:22:05.037Z,941.90
2022-11-16T10:23:05.013Z,941.90
2022-11-16T10:24:05.016Z,941.91
2022-11-16T10:25:05.052Z,941.88
2022-11-16T10:26:04.973Z,941.88
2022-11-16T10:27:04.978Z,941.89
2022-11-16T10:28:04.938Z,941.87
2022-11-16T10:29:04.954Z,941.90
2022-11-16T10:30:04.952Z,941.86
2022-11-16T10:31:04.928Z,941.79
2022-11-16T10:32:04.896Z,941.78
2022-11-16T10:33:10.738Z,941.79
2022-11-16T10:34:04.891Z,941.79
2022-11-16T10:35:04.853Z,941.75
2022-11-16T10:36:04.869Z,941.70
2022-11-16T10:37:04.841Z,941.75
2022-11-16T10:38:04.820Z,941.74
2022-11-16T10:39:04.809Z,941.80
2022-11-16T10:40:04.826Z,941.78
2022-11-16T10:41:04.786Z,941.79
2022-11-16T10:42:07.739Z,941.73
2022-11-16T10:43:04.740Z,941.68
2022-11-16T10:44:04.734Z,941.62
2022-11-16T10:45:04.713Z,941.60
2022-11-16T10:46:04.733Z,941.66
2022-11-16T10:47:04.737Z,941.65
2022-11-16T10:48:04.710Z,941.70
2022-11-16T10:49:04.674Z,941.68
2022-11-16T10:50:04.648Z,941.68
2022-11-16T10:51:04.670Z,941.67
2022-11-16T10:52:04.632Z,941.65
2022-11-16T10:53:04.614Z,941.65
2022-11-16T10:54:04.614Z,941.62
2022-11-16T10:55:04.583Z,941.66
2022-11-16T10:56:04.605Z,941.65
2022-11-16T10:57:04.563Z,941.63
2022-11-16T10:58:04.553Z,941.59
2022-11-16T10:59:04.541Z,941.61
2022-11-16T11:00:06.645Z,941.62
2022-11-16T11:01:04.611Z,941.65
2022-11-16T11:02:04.525Z,941.61
2022-11-16T11:03:04.537Z,941.65
2022-11-16T11:04:04.480Z,941.65
2022-11-16T11:05:04.502Z,941.67
2022-11-16T11:06:04.435Z,941.66
2022-11-16T11:07:04.494Z,941.63
2022-11-16T11:08:04.400Z,941.57
2022-11-16T11:09:04.426Z,941.57
2022-11-16T11:10:04.383Z,941.54
2022-11-16T11:11:04.402Z,941.55
2022-11-16T11:12:04.378Z,941.51
2022-11-16T11:13:04.338Z,941.55
2022-11-16T11:14:04.330Z,941.60
2022-11-16T11:15:04.310Z,941.61
2022-11-16T11:16:04.359Z,941.61
2022-11-16T11:17:04.284Z,941.59
2022-11-16T11:18:04.282Z,941.63
2022-11-16T11:19:04.263Z,941.62
2022-11-16T11:20:04.240Z,941.64
2022-11-16T11:21:04.257Z,941.67
2022-11-16T11:22:04.215Z,941.66
2022-11-16T11:23:04.221Z,941.67
2022-11-16T11:24:37.364Z,941.69
2022-11-16T11:25:04.211Z,941.63
2022-11-16T11:26:04.176Z,941.66
2022-11-16T11:27:04.166Z,941.63
2022-11-16T11:28:04.170Z,941.61
2022-11-16T11:29:04.134Z,941.53
2022-11-16T11:30:04.102Z,941.58
2022-11-16T11:31:04.095Z,941.66
2022-11-16T11:32:04.079Z,941.67
2022-11-16T11:33:04.073Z,941.71
2022-11-16T11:34:04.107Z,941.73
2022-11-16T11:35:04.087Z,941.75
2022-11-16T11:36:04.032Z,941.75
2022-11-16T11:37:04.029Z,941.76
2022-11-16T11:38:07.990Z,941.75
2022-11-16T11:39:04.148Z,941.73
2022-11-16T11:40:03.984Z,941.73
2022-11-16T11:41:03.963Z,941.71
2022-11-16T11:42:03.948Z,941.72
2022-11-16T11:43:03.947Z,941.75
2022-11-16T11:44:03.917Z,941.75
2022-11-16T11:45:03.923Z,941.73
2022-11-16T11:46:03.918Z,941.74
2022-11-16T11:47:50.424Z,941.71
2022-11-16T11:48:03.870Z,941.76
2022-11-16T11:49:03.851Z,941.79
2022-11-16T11:50:03.872Z,941.85
2022-11-16T11:51:03.861Z,941.88
2022-11-16T11:52:03.844Z,941.89
2022-11-16T11:53:03.843Z,941.87
2022-11-16T11:54:03.791Z,941.84
2022-11-16T11:55:03.773Z,941.82
2022-11-16T11:56:03.754Z,941.84
2022-11-16T11:57:03.773Z,941.86
2022-11-16T11:58:03.751Z,941.89
2022-11-16T11:59:03.716Z,941.94
2022-11-16T12:00:03.692Z,941.89
2022-11-16T12:01:03.681Z,941.94
2022-11-16T12:02:03.708Z,941.96
2022-11-16T12:03:03.716Z,941.95
2022-11-16T12:04:03.704Z,941.93
2022-11-16T12:05:03.658Z,941.88
2022-11-16T12:06:03.653Z,941.86
2022-11-16T12:07:03.667Z,941.78
2022-11-16T12:08:03.617Z,941.84
2022-11-16T12:09:03.581Z,941.80
2022-11-16T12:10:03.627Z,941.76
2022-11-16T12:11:03.545Z,941.81
2022-11-16T12:12:03.538Z,941.80
2022-11-16T12:13:03.555Z,941.76
2022-11-16T12:14:03.521Z,941.77
2022-11-16T12:15:03.516Z,941.79
2022-11-16T12:16:03.476Z,941.81
2022-11-16T12:17:03.487Z,941.76
2022-11-16T12:18:03.486Z,941.76
2022-11-16T12:19:03.460Z,941.75
2022-11-16T12:20:03.433Z,941.77
2022-11-16T12:21:03.412Z,941.78
2022-11-16T12:22:03.437Z,941.78
2022-11-16T12:23:04.444Z,941.77
2022-11-16T12:24:03.388Z,941.79
2022-11-16T12:25:03.359Z,941.78
2022-11-16T12:26:03.358Z,941.76
2022-11-16T12:27:03.355Z,941.78
2022-11-16T12:28:03.312Z,941.74
2022-11-16T12:29:03.326Z,941.79